createdAt,value
2017-12-22T00:02:15.543Z,31.40
2017-12-22T00:04:43.404Z,32.40
2017-12-22T00:07:11.405Z,29.60
2017-12-22T00:09:39.610Z,30.10
2017-12-22T00:12:08.392Z,29.70
2017-12-22T00:14:36.617Z,29.07
2017-12-22T00:17:04.491Z,28.70
2017-12-22T00:19:32.452Z,28.80
2017-12-22T00:22:00.315Z,28.60
2017-12-22T00:24:28.388Z,30.80
2017-12-22T00:26:56.148Z,35.83
2017-12-22T00:29:24.028Z,29.03
2017-12-22T00:31:51.980Z,31.10
2017-12-22T00:34:19.880Z,31.03
2017-12-22T00:36:47.793Z,31.80
2017-12-22T00:39:15.746Z,30.03
2017-12-22T00:41:44.304Z,34.37
2017-12-22T00:44:12.246Z,32.63
2017-12-22T00:46:40.247Z,36.73
2017-12-22T00:49:09.422Z,36.97
2017-12-22T00:51:37.908Z,38.37
2017-12-22T00:54:05.895Z,39.57
2017-12-22T00:56:33.759Z,45.00
2017-12-22T00:59:01.712Z,37.23
2017-12-22T01:01:29.539Z,43.73
2017-12-22T01:03:57.607Z,40.10
2017-12-22T01:06:26.182Z,47.60
2017-12-22T01:08:55.317Z,40.60
2017-12-22T01:11:23.126Z,42.47
2017-12-22T01:13:51.887Z,33.20
2017-12-22T01:16:25.208Z,38.50
2017-12-22T01:19:00.297Z,32.50
2017-12-22T01:21:28.325Z,32.67
2017-12-22T01:23:56.199Z,31.57
2017-12-22T01:26:24.057Z,32.47
2017-12-22T01:28:52.036Z,31.73
2017-12-22T01:31:20.118Z,35.43
2017-12-22T01:33:52.472Z,33.70
2017-12-22T01:36:20.362Z,32.90
2017-12-22T01:38:48.268Z,33.70
2017-12-22T01:41:16.934Z,31.10
2017-12-22T01:43:44.962Z,30.90
2017-12-22T01:46:12.912Z,28.67
2017-12-22T01:48:41.522Z,31.57
2017-12-22T01:51:09.355Z,29.93
2017-12-22T01:53:38.253Z,31.70
2017-12-22T01:56:07.165Z,30.13
2017-12-22T01:58:35.131Z,31.67
2017-12-22T02:01:04.069Z,30.27
2017-12-22T02:03:31.913Z,32.40
2017-12-22T02:06:03.774Z,28.20
2017-12-22T02:08:32.460Z,29.47
2017-12-22T02:11:00.451Z,33.90
2017-12-22T02:13:28.243Z,31.60
2017-12-22T02:15:56.234Z,24.70
2017-12-22T02:18:24.250Z,32.23
2017-12-22T02:20:52.048Z,27.70
2017-12-22T02:23:19.977Z,35.30
2017-12-22T02:25:47.914Z,30.37
2017-12-22T02:28:15.768Z,29.73
2017-12-22T02:30:44.342Z,34.47
2017-12-22T02:33:12.930Z,39.97
2017-12-22T02:35:42.660Z,27.97
2017-12-22T02:38:11.293Z,28.23
2017-12-22T02:40:43.306Z,29.20
2017-12-22T02:43:11.330Z,30.33
2017-12-22T02:45:39.348Z,27.33
2017-12-22T02:48:07.265Z,31.10
2017-12-22T02:50:35.143Z,31.93
2017-12-22T02:53:04.000Z,27.03
2017-12-22T02:55:31.776Z,34.00
2017-12-22T02:58:01.998Z,32.07
2017-12-22T03:00:30.599Z,28.73
2017-12-22T03:02:58.479Z,28.63
2017-12-22T03:05:27.248Z,24.50
2017-12-22T03:07:56.896Z,31.53
2017-12-22T03:10:24.979Z,27.13
2017-12-22T03:12:52.940Z,28.33
2017-12-22T03:15:20.883Z,29.53
2017-12-22T03:17:50.660Z,34.87
2017-12-22T03:20:18.899Z,37.90
2017-12-22T03:22:46.781Z,37.73
2017-12-22T03:25:14.697Z,29.23
2017-12-22T03:27:42.811Z,32.17
2017-12-22T03:30:11.653Z,35.60
2017-12-22T03:32:39.429Z,30.47
2017-12-22T03:35:07.325Z,42.50
2017-12-22T03:37:35.163Z,36.30
2017-12-22T03:40:03.142Z,35.93
2017-12-22T03:42:31.297Z,34.77
2017-12-22T03:44:59.961Z,40.40
2017-12-22T03:47:27.873Z,40.63
2017-12-22T03:49:57.161Z,34.13
2017-12-22T03:52:25.807Z,38.87
2017-12-22T03:54:53.690Z,40.47
2017-12-22T03:57:21.507Z,49.00
2017-12-22T03:59:49.387Z,49.67
2017-12-22T04:02:21.272Z,38.03
2017-12-22T04:04:49.788Z,42.93
2017-12-22T04:07:18.491Z,42.97
2017-12-22T04:09:47.361Z,44.67
2017-12-22T04:12:15.931Z,41.73
2017-12-22T04:14:43.779Z,49.80
2017-12-22T04:17:12.224Z,44.27
2017-12-22T04:19:40.027Z,45.00
2017-12-22T04:22:07.956Z,45.50
2017-12-22T04:24:35.814Z,49.83
2017-12-22T04:27:03.829Z,44.17
2017-12-22T04:29:31.854Z,50.83
2017-12-22T04:32:00.707Z,41.37
2017-12-22T04:34:29.411Z,38.30
2017-12-22T04:36:58.660Z,44.03
2017-12-22T04:39:26.534Z,38.23
2017-12-22T04:42:00.683Z,45.80
2017-12-22T04:44:28.759Z,43.27
2017-12-22T04:46:56.741Z,40.13
2017-12-22T04:49:25.676Z,40.40
2017-12-22T04:51:53.719Z,43.53
2017-12-22T04:54:21.552Z,45.20
2017-12-22T04:56:50.398Z,43.43
2017-12-22T04:59:19.708Z,44.20
2017-12-22T05:01:48.589Z,41.67
2017-12-22T05:04:16.785Z,42.17
2017-12-22T05:06:44.681Z,40.17
2017-12-22T05:09:13.352Z,46.60
2017-12-22T05:11:41.941Z,46.57
2017-12-22T05:14:15.149Z,40.90
2017-12-22T05:16:43.912Z,42.47
2017-12-22T05:19:11.791Z,41.90
2017-12-22T05:21:39.600Z,39.73
2017-12-22T05:24:07.426Z,36.37
2017-12-22T05:26:35.423Z,32.13
2017-12-22T05:29:03.294Z,32.00
2017-12-22T05:31:32.448Z,33.10
2017-12-22T05:34:01.144Z,29.03
2017-12-22T05:36:30.564Z,27.40
2017-12-22T05:38:58.666Z,30.60
2017-12-22T05:41:26.440Z,31.63
2017-12-22T05:43:54.341Z,26.80
2017-12-22T05:46:22.189Z,28.77
2017-12-22T05:48:50.068Z,32.77
2017-12-22T05:51:18.774Z,25.83
2017-12-22T05:53:46.784Z,27.80
2017-12-22T05:56:14.757Z,29.20
2017-12-22T05:58:42.757Z,32.53
2017-12-22T06:01:14.379Z,39.13
2017-12-22T06:03:42.990Z,33.50
2017-12-22T06:06:11.966Z,33.30
2017-12-22T06:08:39.897Z,34.17
2017-12-22T06:11:07.927Z,32.80
2017-12-22T06:13:37.026Z,37.50
2017-12-22T06:16:06.592Z,36.53
2017-12-22T06:18:35.356Z,33.60
2017-12-22T06:21:03.366Z,35.47
2017-12-22T06:23:31.324Z,38.10
2017-12-22T06:26:00.194Z,39.33
2017-12-22T06:28:28.109Z,39.70
2017-12-22T06:30:56.667Z,34.27
2017-12-22T06:33:24.459Z,28.97
2017-12-22T06:35:53.492Z,28.67
2017-12-22T06:38:21.336Z,27.10
2017-12-22T06:40:49.982Z,28.07
2017-12-22T06:43:17.876Z,22.37
2017-12-22T06:45:46.474Z,23.90
2017-12-22T06:48:15.060Z,24.00
2017-12-22T06:50:43.663Z,21.10
2017-12-22T06:53:11.477Z,21.77
2017-12-22T06:55:39.312Z,22.93
2017-12-22T06:58:07.225Z,26.43
2017-12-22T07:00:35.802Z,27.90
2017-12-22T07:03:03.603Z,27.67
2017-12-22T07:05:31.386Z,27.70
2017-12-22T07:07:59.207Z,25.90
2017-12-22T07:10:27.786Z,27.73
2017-12-22T07:12:56.351Z,26.77
2017-12-22T07:15:24.172Z,27.10
2017-12-22T07:17:51.936Z,28.50
2017-12-22T07:20:19.710Z,25.97
2017-12-22T07:22:47.581Z,27.90
2017-12-22T07:25:15.428Z,24.30
2017-12-22T07:27:43.185Z,23.70
2017-12-22T07:30:11.047Z,24.77
2017-12-22T07:32:38.855Z,23.80
2017-12-22T07:35:07.346Z,24.07
2017-12-22T07:37:35.147Z,25.50
2017-12-22T07:40:03.956Z,29.03
2017-12-22T07:42:31.727Z,25.60
2017-12-22T07:44:59.524Z,26.40
2017-12-22T07:47:27.886Z,36.03
2017-12-22T07:49:55.642Z,37.57
2017-12-22T07:52:23.410Z,28.67
2017-12-22T07:54:56.351Z,27.93
2017-12-22T07:57:24.911Z,28.93
2017-12-22T07:59:52.733Z,22.97
2017-12-22T08:02:20.491Z,26.90
2017-12-22T08:04:48.289Z,51.00
2017-12-22T08:07:16.128Z,39.60
2017-12-22T08:09:43.933Z,43.20
2017-12-22T08:12:12.400Z,26.30
2017-12-22T08:14:40.163Z,25.07
2017-12-22T08:17:07.972Z,22.30
2017-12-22T08:19:36.595Z,53.33
2017-12-22T08:22:04.392Z,25.97
2017-12-22T08:24:32.183Z,26.77
2017-12-22T08:27:00.851Z,29.03
2017-12-22T08:29:28.633Z,25.73
2017-12-22T08:31:57.244Z,26.00
2017-12-22T08:34:25.018Z,23.97
2017-12-22T08:36:52.776Z,27.33
2017-12-22T08:39:20.549Z,22.20
2017-12-22T08:41:48.332Z,30.43
2017-12-22T08:44:16.096Z,23.43
2017-12-22T08:46:43.866Z,22.70
2017-12-22T08:49:12.211Z,23.33
2017-12-22T08:51:40.004Z,25.00
2017-12-22T08:54:07.776Z,30.30
2017-12-22T08:56:35.885Z,25.50
2017-12-22T08:59:03.648Z,23.70
2017-12-22T09:01:32.841Z,31.57
2017-12-22T09:04:02.424Z,28.23
2017-12-22T09:06:30.258Z,28.27
2017-12-22T09:08:58.006Z,24.50
2017-12-22T09:14:00.550Z,29.33
2017-12-22T09:16:28.370Z,25.70
2017-12-22T09:18:56.113Z,37.60
2017-12-22T09:21:23.983Z,27.90
2017-12-22T09:23:51.747Z,24.50
2017-12-22T09:26:19.495Z,23.10
2017-12-22T09:28:48.532Z,24.53
2017-12-22T09:31:16.310Z,23.07
2017-12-22T09:33:44.197Z,24.20
2017-12-22T09:36:11.958Z,27.20
2017-12-22T09:38:39.795Z,39.20
2017-12-22T09:41:07.726Z,30.23
2017-12-22T09:43:35.527Z,32.60
2017-12-22T09:46:03.307Z,29.67
2017-12-22T09:48:31.130Z,26.73
2017-12-22T09:50:58.935Z,30.40
2017-12-22T09:53:26.712Z,25.77
2017-12-22T09:55:54.518Z,25.10
2017-12-22T09:58:23.106Z,26.67
2017-12-22T10:00:50.916Z,24.77
2017-12-22T10:03:18.702Z,25.40
2017-12-22T10:05:47.302Z,20.90
2017-12-22T10:08:15.128Z,21.77
2017-12-22T10:10:42.920Z,21.07
2017-12-22T10:13:11.481Z,23.73
2017-12-22T10:15:39.301Z,24.57
2017-12-22T10:18:07.110Z,21.17
2017-12-22T10:20:35.217Z,20.30
2017-12-22T10:23:03.867Z,22.87
2017-12-22T10:25:31.628Z,19.47
2017-12-22T10:28:00.196Z,24.70
2017-12-22T10:30:27.958Z,23.23
2017-12-22T10:32:55.705Z,29.13
2017-12-22T10:35:24.387Z,23.80
2017-12-22T10:37:52.189Z,34.07
2017-12-22T10:40:19.967Z,44.90
2017-12-22T10:42:48.585Z,22.40
2017-12-22T10:45:16.463Z,25.43
2017-12-22T10:47:44.287Z,22.13
2017-12-22T10:50:12.858Z,18.77
2017-12-22T10:52:40.608Z,24.00
2017-12-22T10:55:08.370Z,23.17
2017-12-22T10:57:36.141Z,21.00
2017-12-22T11:00:04.001Z,16.77
2017-12-22T11:02:31.776Z,14.33
2017-12-22T11:05:00.469Z,17.27
2017-12-22T11:07:28.235Z,16.70
2017-12-22T11:09:55.981Z,17.00
2017-12-22T11:12:23.766Z,20.97
2017-12-22T11:14:51.527Z,18.63
2017-12-22T11:17:19.615Z,21.97
2017-12-22T11:19:48.185Z,18.83
2017-12-22T11:22:17.199Z,20.40
2017-12-22T11:24:44.986Z,20.80
2017-12-22T11:27:12.745Z,20.50
2017-12-22T11:29:40.516Z,18.30
2017-12-22T11:32:08.277Z,20.60
2017-12-22T11:34:36.110Z,21.13
2017-12-22T11:37:04.632Z,19.30
2017-12-22T11:39:32.479Z,23.63
2017-12-22T11:42:00.233Z,21.57
2017-12-22T11:44:28.759Z,24.53
2017-12-22T11:46:56.565Z,22.53
2017-12-22T11:49:25.934Z,22.63
2017-12-22T11:51:53.733Z,26.20
2017-12-22T11:54:22.347Z,25.67
2017-12-22T11:56:50.174Z,17.50
2017-12-22T11:59:18.756Z,21.20
2017-12-22T12:01:46.588Z,18.73
2017-12-22T12:04:14.414Z,21.17
2017-12-22T12:06:42.802Z,19.50
2017-12-22T12:09:10.868Z,22.17
2017-12-22T12:11:38.712Z,20.60
2017-12-22T12:14:09.173Z,24.33
2017-12-22T12:16:42.762Z,25.50
2017-12-22T12:19:15.606Z,20.33
2017-12-22T12:21:46.044Z,20.50
2017-12-22T12:24:16.071Z,18.33
2017-12-22T12:26:46.759Z,18.20
2017-12-22T12:29:31.552Z,18.43
2017-12-22T12:32:09.221Z,19.90
2017-12-22T12:34:37.290Z,20.53
2017-12-22T12:37:09.874Z,19.17
2017-12-22T12:39:38.822Z,19.23
2017-12-22T12:42:11.235Z,17.70
2017-12-22T12:44:39.206Z,18.97
2017-12-22T12:47:07.564Z,16.37
2017-12-22T12:49:35.407Z,22.20
2017-12-22T12:52:03.286Z,20.90
2017-12-22T12:54:32.327Z,29.20
2017-12-22T12:57:00.226Z,24.77
2017-12-22T12:59:28.884Z,18.40
2017-12-22T13:01:56.733Z,22.60
2017-12-22T13:04:24.716Z,15.50
2017-12-22T13:06:52.641Z,17.60
2017-12-22T13:09:20.522Z,14.17
2017-12-22T13:11:49.275Z,17.60
2017-12-22T13:14:17.152Z,20.73
2017-12-22T13:16:45.384Z,20.33
2017-12-22T13:19:13.545Z,19.07
2017-12-22T13:21:41.420Z,19.33
2017-12-22T13:24:09.275Z,18.93
2017-12-22T13:26:37.345Z,21.50
2017-12-22T13:29:05.135Z,15.77
2017-12-22T13:31:34.429Z,23.63
2017-12-22T13:34:02.713Z,16.37
2017-12-22T13:36:31.587Z,15.40
2017-12-22T13:38:59.410Z,18.57
2017-12-22T13:41:27.291Z,18.00
2017-12-22T13:43:55.686Z,21.13
2017-12-22T13:46:23.499Z,20.07
2017-12-22T13:48:51.407Z,20.00
2017-12-22T13:51:19.379Z,23.50
2017-12-22T13:53:47.398Z,28.77
2017-12-22T13:56:15.298Z,28.10
2017-12-22T13:58:43.151Z,27.20
2017-12-22T14:01:10.936Z,31.87
2017-12-22T14:03:38.736Z,27.23
2017-12-22T14:06:06.966Z,26.97
2017-12-22T14:08:34.780Z,27.43
2017-12-22T14:11:03.365Z,28.17
2017-12-22T14:13:31.152Z,31.00
2017-12-22T14:16:00.084Z,168.93
2017-12-22T14:18:27.999Z,180.47
2017-12-22T14:20:56.596Z,62.73
2017-12-22T14:23:24.448Z,40.63
2017-12-22T14:25:53.294Z,33.20
2017-12-22T14:28:21.159Z,56.73
2017-12-22T14:30:49.143Z,35.27
2017-12-22T14:33:17.064Z,34.27
2017-12-22T14:35:44.822Z,39.23
2017-12-22T14:38:12.850Z,52.17
2017-12-22T14:40:40.701Z,30.37
2017-12-22T14:43:08.530Z,28.20
2017-12-22T14:45:36.710Z,30.47
2017-12-22T14:48:04.679Z,38.40
2017-12-22T14:50:32.525Z,42.40
2017-12-22T14:53:01.170Z,31.30
2017-12-22T14:55:28.940Z,35.73
2017-12-22T14:57:56.793Z,32.77
2017-12-22T15:00:24.698Z,34.50
2017-12-22T15:02:53.354Z,22.67
2017-12-22T15:05:21.263Z,22.83
2017-12-22T15:07:49.296Z,22.40
2017-12-22T15:10:17.083Z,19.27
2017-12-22T15:12:45.851Z,29.00
2017-12-22T15:15:13.694Z,20.03
2017-12-22T15:17:41.557Z,24.53
2017-12-22T15:20:09.507Z,21.53
2017-12-22T15:22:38.091Z,22.97
2017-12-22T15:25:05.932Z,25.70
2017-12-22T15:27:33.725Z,27.07
2017-12-22T15:30:01.525Z,21.20
2017-12-22T15:32:29.690Z,18.87
2017-12-22T15:34:57.491Z,18.83
2017-12-22T15:37:26.109Z,22.87
2017-12-22T15:39:53.894Z,28.97
2017-12-22T15:42:21.681Z,30.23
2017-12-22T15:44:49.590Z,30.17
2017-12-22T15:47:17.505Z,23.20
2017-12-22T15:49:45.437Z,34.33
2017-12-22T15:52:13.321Z,52.90
2017-12-22T15:54:41.400Z,28.43
2017-12-22T15:57:09.200Z,45.27
2017-12-22T15:59:37.762Z,22.60
2017-12-22T16:02:05.566Z,50.50
2017-12-22T16:04:34.281Z,63.60
2017-12-22T16:07:02.376Z,72.00
2017-12-22T16:09:30.249Z,58.23
2017-12-22T16:11:58.089Z,58.70
2017-12-22T16:14:25.912Z,62.83
2017-12-22T16:16:54.687Z,84.57
2017-12-22T16:19:23.343Z,45.07
2017-12-22T16:21:51.158Z,62.43
2017-12-22T16:24:19.076Z,66.40
2017-12-22T16:26:46.884Z,83.57
2017-12-22T16:31:50.093Z,150.53
2017-12-22T16:34:18.825Z,67.90
2017-12-22T16:36:46.650Z,78.87
2017-12-22T16:39:15.228Z,60.83
2017-12-22T16:41:43.088Z,94.60
2017-12-22T16:44:11.768Z,79.37
2017-12-22T16:46:40.995Z,94.00
2017-12-22T16:49:08.965Z,77.80
2017-12-22T16:51:36.774Z,73.60
2017-12-22T16:54:04.595Z,80.93
2017-12-22T16:56:32.435Z,59.07
2017-12-22T16:59:01.071Z,37.33
2017-12-22T17:01:28.871Z,45.80
2017-12-22T17:03:56.697Z,25.17
2017-12-22T17:06:24.672Z,27.43
2017-12-22T17:08:52.982Z,21.73
2017-12-22T17:11:20.766Z,26.30
2017-12-22T17:13:49.322Z,23.93
2017-12-22T17:16:17.110Z,23.33
2017-12-22T17:18:45.716Z,17.43
2017-12-22T17:21:14.218Z,16.93
2017-12-22T17:23:42.063Z,15.33
2017-12-22T17:26:09.980Z,17.70
2017-12-22T17:28:37.760Z,19.17
2017-12-22T17:31:05.531Z,18.07
2017-12-22T17:33:34.085Z,19.10
2017-12-22T17:36:01.892Z,19.30
2017-12-22T17:38:30.573Z,24.37
2017-12-22T17:40:59.652Z,22.23
2017-12-22T17:43:27.519Z,20.10
2017-12-22T17:45:55.349Z,15.30
2017-12-22T17:48:23.194Z,15.67
2017-12-22T17:50:51.002Z,18.13
2017-12-22T17:53:18.792Z,14.30
2017-12-22T17:55:47.372Z,28.10
2017-12-22T17:58:15.939Z,22.20
2017-12-22T18:00:43.814Z,20.70
2017-12-22T18:03:12.369Z,31.63
2017-12-22T18:05:40.382Z,27.53
2017-12-22T18:08:09.802Z,22.90
2017-12-22T18:10:37.690Z,26.97
2017-12-22T18:13:05.544Z,25.63
2017-12-22T18:15:33.447Z,20.73
2017-12-22T18:18:01.372Z,24.40
2017-12-22T18:20:29.372Z,33.67
2017-12-22T18:22:57.279Z,35.70
2017-12-22T18:25:25.896Z,39.60
2017-12-22T18:27:53.805Z,36.07
2017-12-22T18:30:21.653Z,37.37
2017-12-22T18:32:49.431Z,32.40
2017-12-22T18:35:17.510Z,29.80
2017-12-22T18:37:45.316Z,21.57
2017-12-22T18:40:13.131Z,26.23
2017-12-22T18:42:41.831Z,17.90
2017-12-22T18:45:09.692Z,18.50
2017-12-22T18:47:37.487Z,17.97
2017-12-22T18:50:06.048Z,17.93
2017-12-22T18:52:33.831Z,16.57
2017-12-22T18:55:06.278Z,13.07
2017-12-22T18:57:34.139Z,14.60
2017-12-22T19:00:02.758Z,14.83
2017-12-22T19:02:31.340Z,17.73
2017-12-22T19:04:59.894Z,21.17
2017-12-22T19:07:27.676Z,14.90
2017-12-22T19:09:55.584Z,26.07
2017-12-22T19:12:24.480Z,18.43
2017-12-22T19:14:52.223Z,16.20
2017-12-22T19:17:20.022Z,16.87
2017-12-22T19:19:48.024Z,14.93
2017-12-22T19:22:15.792Z,17.10
2017-12-22T19:24:43.589Z,19.30
2017-12-22T19:27:11.389Z,21.40
2017-12-22T19:29:39.200Z,23.57
2017-12-22T19:32:07.785Z,23.03
2017-12-22T19:34:36.358Z,19.83
2017-12-22T19:37:04.904Z,20.23
2017-12-22T19:39:32.670Z,17.43
2017-12-22T19:42:00.484Z,16.57
2017-12-22T19:44:29.854Z,20.10
2017-12-22T19:46:58.536Z,17.67
2017-12-22T19:49:26.418Z,20.03
2017-12-22T19:51:54.524Z,17.77
2017-12-22T19:54:22.352Z,15.40
2017-12-22T19:56:50.170Z,15.20
2017-12-22T19:59:18.003Z,16.73
2017-12-22T20:01:46.558Z,17.33
2017-12-22T20:04:14.350Z,21.20
2017-12-22T20:06:42.951Z,13.83
2017-12-22T20:09:10.854Z,13.53
2017-12-22T20:11:38.670Z,16.60
2017-12-22T20:14:07.208Z,15.33
2017-12-22T20:16:35.332Z,15.47
2017-12-22T20:19:03.179Z,14.40
2017-12-22T20:21:32.008Z,16.20
2017-12-22T20:23:59.861Z,18.30
2017-12-22T20:26:27.697Z,16.03
2017-12-22T20:28:56.290Z,15.40
2017-12-22T20:31:25.186Z,13.90
2017-12-22T20:33:53.006Z,23.80
2017-12-22T20:36:20.956Z,19.30
2017-12-22T20:38:48.885Z,19.07
2017-12-22T20:41:17.396Z,20.13
2017-12-22T20:43:45.179Z,18.33
2017-12-22T20:46:12.973Z,16.13
2017-12-22T20:48:41.511Z,18.73
2017-12-22T20:51:09.357Z,14.40
2017-12-22T20:53:37.133Z,15.17
2017-12-22T20:56:05.869Z,15.70
2017-12-22T20:58:33.643Z,17.00
2017-12-22T21:01:01.469Z,17.70
2017-12-22T21:03:29.263Z,17.00
2017-12-22T21:05:57.033Z,14.50
2017-12-22T21:08:24.890Z,16.80
2017-12-22T21:10:52.798Z,17.83
2017-12-22T21:13:20.589Z,15.43
2017-12-22T21:15:48.388Z,15.90
2017-12-22T21:18:16.192Z,15.77
2017-12-22T21:20:43.966Z,13.20
2017-12-22T21:23:11.733Z,13.63
2017-12-22T21:25:39.537Z,15.80
2017-12-22T21:28:07.359Z,15.63
2017-12-22T21:30:35.121Z,14.23
2017-12-22T21:33:02.910Z,15.57
2017-12-22T21:35:30.656Z,15.00
2017-12-22T21:37:58.495Z,17.50
2017-12-22T21:40:27.038Z,13.30
2017-12-22T21:42:54.802Z,16.53
2017-12-22T21:45:23.133Z,14.97
2017-12-22T21:47:50.913Z,14.80
2017-12-22T21:50:18.764Z,12.27
2017-12-22T21:52:46.554Z,14.57
2017-12-22T21:55:14.307Z,15.80
2017-12-22T21:57:42.135Z,15.77
2017-12-22T22:00:10.775Z,14.13
2017-12-22T22:02:38.579Z,18.30
2017-12-22T22:05:06.379Z,17.33
2017-12-22T22:07:34.152Z,17.60
2017-12-22T22:10:02.128Z,16.40
2017-12-22T22:12:29.897Z,17.10
2017-12-22T22:14:57.931Z,18.20
2017-12-22T22:17:25.701Z,16.43
2017-12-22T22:19:53.470Z,19.40
2017-12-22T22:22:22.078Z,20.80
2017-12-22T22:24:49.917Z,15.07
2017-12-22T22:27:17.687Z,19.67
2017-12-22T22:29:45.451Z,16.60
2017-12-22T22:32:13.215Z,16.80
2017-12-22T22:34:40.958Z,16.37
2017-12-22T22:37:10.067Z,15.47
2017-12-22T22:39:37.872Z,14.17
2017-12-22T22:42:05.624Z,13.37
2017-12-22T22:44:33.375Z,11.53
2017-12-22T22:47:01.140Z,11.93
2017-12-22T22:49:28.933Z,12.80
2017-12-22T22:51:56.760Z,12.40
2017-12-22T22:54:24.537Z,10.37
2017-12-22T22:56:52.338Z,10.30
2017-12-22T22:59:20.058Z,10.40
2017-12-22T23:01:47.816Z,10.53
2017-12-22T23:04:15.562Z,10.20
2017-12-22T23:06:44.070Z,11.33
2017-12-22T23:09:11.844Z,11.30
2017-12-22T23:11:39.611Z,14.57
2017-12-22T23:14:07.394Z,15.07
2017-12-22T23:16:35.156Z,13.77
2017-12-22T23:19:02.944Z,12.10
2017-12-22T23:21:30.763Z,14.80
2017-12-22T23:23:58.555Z,14.63
2017-12-22T23:26:26.375Z,12.33
2017-12-22T23:28:54.141Z,14.10
2017-12-22T23:31:21.907Z,12.67
2017-12-22T23:33:49.700Z,13.00
2017-12-22T23:36:17.484Z,15.67
2017-12-22T23:38:45.406Z,11.30
2017-12-22T23:41:13.167Z,11.50
2017-12-22T23:43:40.917Z,10.73
2017-12-22T23:46:09.492Z,13.17
2017-12-22T23:48:38.007Z,10.80
2017-12-22T23:51:06.728Z,12.03
2017-12-22T23:53:34.537Z,12.80
2017-12-22T23:56:02.300Z,12.97
2017-12-22T23:58:30.580Z,13.10
